SBOSBO BYJ / LPBJ
Speedbird OnlineSpeedbird Online BYJ / LPBJ

Beja Airport / Airbase
16:14 34°C

Location Beja (madeira), Portugal
Latitude: 38.078899
Longitude: -7.9324
Local Time 16:14 on 30 May 2024
UTC +1 hours (Europe/Lisbon)
Currency £1 equals EUR 1.18
METAR LPBJ 301500Z 30008KT 270V330 CAVOK 34/10 Q1010
TAF TAF LPBJ 301104Z 3012/3112 29008KT CAVOK
Weather As Of 30 May 2024 16:14
Description Clear sky
Wind 15 km/h from North-West (300°)
Cloud Cover 0%
Precipitation Rain: none, Snow: none
Sunrise 06:11
Sunset 20:47
Web Airport Website | Wikipedia
Codes IATA: BYJ
ICAO: LPBJ
Altitude 194 Meter / 636 Feet
Distance 1,621 KM / 1,007 Miles
from London.
Runways
RunwayLength (m)Surface
01L3450Concrete
01R2951Concrete
19L2951Concrete
19R3450Concrete
Radio
TypeDescriptionFrequency
APPAPP130.1
GNDGND23.4
TWRTWR130.4
Live ATC



Support Speedbird Online

© 2017-2024 Speedbird Online